createdAt,value
2023-03-05T00:04:49.626Z,10.57
2023-03-05T00:09:57.049Z,10.56
2023-03-05T00:15:03.950Z,10.58
2023-03-05T00:20:12.377Z,10.55
2023-03-05T00:25:20.158Z,10.56
2023-03-05T00:30:27.323Z,10.54
2023-03-05T00:35:35.238Z,10.54
2023-03-05T00:40:43.774Z,10.54
2023-03-05T00:45:51.059Z,10.52
2023-03-05T00:50:58.218Z,10.52
2023-03-05T00:56:05.772Z,10.50
2023-03-05T01:01:13.261Z,10.50
2023-03-05T01:06:20.959Z,10.52
2023-03-05T01:11:28.334Z,10.50
2023-03-05T01:16:35.992Z,10.50
2023-03-05T01:21:44.095Z,10.50
2023-03-05T01:26:51.580Z,10.48
2023-03-05T01:31:59.109Z,10.48
2023-03-05T01:37:06.613Z,10.48
2023-03-05T01:42:13.969Z,10.46
2023-03-05T01:47:21.254Z,10.46
2023-03-05T01:52:29.986Z,10.46
2023-03-05T01:57:38.580Z,10.44
2023-03-05T02:02:46.443Z,10.43
2023-03-05T02:07:53.980Z,10.42
2023-03-05T02:13:03.298Z,10.42
2023-03-05T02:18:11.554Z,10.42
2023-03-05T02:23:19.412Z,10.40
2023-03-05T02:28:28.705Z,10.40
2023-03-05T02:33:35.828Z,10.40
2023-03-05T02:38:43.540Z,10.37
2023-03-05T02:43:50.806Z,10.38
2023-03-05T02:48:57.951Z,10.37
2023-03-05T02:54:05.427Z,10.35
2023-03-05T02:59:12.984Z,10.36
2023-03-05T03:04:20.785Z,10.36
2023-03-05T03:09:28.145Z,10.34
2023-03-05T03:14:39.729Z,10.34
2023-03-05T03:19:47.635Z,10.34
2023-03-05T03:24:55.549Z,10.31
2023-03-05T03:30:05.168Z,10.33
2023-03-05T03:35:13.263Z,10.31
2023-03-05T03:40:20.700Z,10.30
2023-03-05T03:45:27.940Z,10.30
2023-03-05T03:50:35.133Z,10.30
2023-03-05T03:55:43.054Z,10.29
2023-03-05T04:00:50.184Z,10.29
2023-03-05T04:05:57.483Z,10.28
2023-03-05T04:11:04.793Z,10.26
2023-03-05T04:16:12.333Z,10.28
2023-03-05T04:21:19.582Z,10.24
2023-03-05T04:26:27.188Z,10.24
2023-03-05T04:31:34.662Z,10.25
2023-03-05T04:36:42.252Z,10.23
2023-03-05T04:41:49.718Z,10.23
2023-03-05T04:46:57.328Z,10.22
2023-03-05T04:52:04.683Z,10.21
2023-03-05T04:57:12.177Z,10.21
2023-03-05T05:02:19.708Z,10.21
2023-03-05T05:07:26.908Z,10.20
2023-03-05T05:12:34.236Z,10.19
2023-03-05T05:17:41.508Z,10.18
2023-03-05T05:22:48.867Z,10.18
2023-03-05T05:27:56.107Z,10.17
2023-03-05T05:33:03.680Z,10.17
2023-03-05T05:38:11.310Z,10.16
2023-03-05T05:43:18.872Z,10.16
2023-03-05T05:48:26.426Z,10.16
2023-03-05T05:53:33.847Z,10.16
2023-03-05T05:58:42.114Z,10.15
2023-03-05T06:03:49.482Z,10.14
2023-03-05T06:08:56.912Z,10.12
2023-03-05T06:14:04.298Z,10.12
2023-03-05T06:19:13.405Z,10.13
2023-03-05T06:24:21.123Z,10.14
2023-03-05T06:29:28.703Z,10.11
2023-03-05T06:34:35.713Z,10.10
2023-03-05T06:39:42.921Z,10.10
2023-03-05T06:44:50.234Z,10.11
2023-03-05T06:49:57.434Z,10.08
2023-03-05T06:55:05.070Z,10.10
2023-03-05T07:00:13.390Z,10.08
2023-03-05T07:05:20.977Z,10.08
2023-03-05T07:10:28.232Z,10.08
2023-03-05T07:15:35.435Z,10.09
2023-03-05T07:20:43.041Z,10.06
2023-03-05T07:25:50.601Z,10.06
2023-03-05T07:31:01.849Z,10.05
2023-03-05T07:36:10.152Z,10.06
2023-03-05T07:41:20.112Z,10.04
2023-03-05T07:46:28.552Z,10.06
2023-03-05T07:51:35.930Z,10.05
2023-03-05T07:56:43.425Z,10.06
2023-03-05T08:01:50.615Z,10.03
2023-03-05T08:06:58.212Z,10.04
2023-03-05T08:12:05.714Z,10.02
2023-03-05T08:17:13.069Z,10.02
2023-03-05T08:22:23.573Z,10.01
2023-03-05T08:27:30.833Z,10.02
2023-03-05T08:32:38.406Z,10.02
2023-03-05T08:37:45.718Z,10.01
2023-03-05T08:42:53.107Z,10.01
2023-03-05T08:48:00.255Z,10.00
2023-03-05T08:53:07.744Z,10.02
2023-03-05T08:58:15.172Z,10.01
2023-03-05T09:03:22.533Z,10.00
2023-03-05T09:08:29.623Z,10.01
2023-03-05T09:13:37.374Z,10.00
2023-03-05T09:18:44.883Z,10.01
2023-03-05T09:23:52.593Z,10.02
2023-03-05T09:29:00.025Z,9.99
2023-03-05T09:34:09.351Z,9.99
2023-03-05T09:39:16.939Z,9.98
2023-03-05T09:44:32.786Z,9.96
2023-03-05T09:49:48.585Z,9.96
2023-03-05T09:54:57.052Z,9.96
2023-03-05T10:00:08.566Z,9.93
2023-03-05T10:05:20.094Z,9.91
2023-03-05T10:10:28.548Z,9.90
2023-03-05T10:15:40.969Z,9.89
2023-03-05T10:21:04.383Z,9.90
2023-03-05T10:26:17.381Z,9.91
2023-03-05T10:31:34.409Z,9.90
2023-03-05T10:36:55.761Z,9.90
2023-03-05T10:42:08.845Z,9.90
2023-03-05T10:47:18.731Z,9.88
2023-03-05T10:52:38.555Z,9.88
2023-03-05T10:57:46.485Z,9.89
2023-03-05T11:02:57.742Z,9.88
2023-03-05T11:08:20.215Z,9.86
2023-03-05T11:13:29.633Z,9.86
2023-03-05T11:18:38.146Z,9.85
2023-03-05T11:23:45.770Z,9.85
2023-03-05T11:29:00.993Z,9.85
2023-03-05T11:34:09.586Z,9.85
2023-03-05T11:39:19.842Z,9.84
2023-03-05T11:44:28.818Z,9.89
2023-03-05T11:49:42.249Z,9.89
2023-03-05T11:54:58.948Z,9.89
2023-03-05T12:00:11.843Z,9.91
2023-03-05T12:05:19.554Z,9.91
2023-03-05T12:10:28.088Z,9.90
2023-03-05T12:15:39.997Z,9.88
2023-03-05T12:20:50.442Z,9.86
2023-03-05T12:25:59.668Z,9.83
2023-03-05T12:31:07.610Z,9.84
2023-03-05T12:36:43.726Z,9.85
2023-03-05T12:41:51.413Z,9.87
2023-03-05T12:47:27.048Z,9.88
2023-03-05T12:52:35.487Z,9.89
2023-03-05T12:57:44.909Z,9.89
2023-03-05T13:02:56.537Z,9.88
2023-03-05T13:08:15.962Z,9.90
2023-03-05T13:13:23.950Z,9.87
2023-03-05T13:18:33.059Z,9.87
2023-03-05T13:23:40.621Z,9.87
2023-03-05T13:29:05.494Z,9.85
2023-03-05T13:34:13.917Z,9.86
2023-03-05T13:39:27.870Z,9.84
2023-03-05T13:44:36.214Z,9.85
2023-03-05T13:49:44.527Z,9.82
2023-03-05T13:54:52.266Z,9.81
2023-03-05T14:00:00.304Z,9.82
2023-03-05T14:05:15.866Z,9.81
2023-03-05T14:10:39.955Z,9.82
2023-03-05T14:16:04.708Z,9.82
2023-03-05T14:21:12.721Z,9.81
2023-03-05T14:26:29.016Z,9.79
2023-03-05T14:31:39.196Z,9.77
2023-03-05T14:36:48.629Z,9.76
2023-03-05T14:41:55.948Z,9.74
2023-03-05T14:47:03.430Z,9.72
2023-03-05T14:52:15.472Z,9.71
2023-03-05T14:57:24.379Z,9.68
2023-03-05T15:02:31.599Z,9.68
2023-03-05T15:07:38.989Z,9.67
2023-03-05T15:12:46.421Z,9.67
2023-03-05T15:17:55.577Z,9.65
2023-03-05T15:23:03.018Z,9.66
2023-03-05T15:28:10.476Z,9.64
2023-03-05T15:33:18.681Z,9.62
2023-03-05T15:38:25.925Z,9.61
2023-03-05T15:43:33.038Z,9.61
2023-03-05T15:48:41.241Z,9.59
2023-03-05T15:53:49.498Z,9.59
2023-03-05T15:58:56.639Z,9.57
2023-03-05T16:04:04.401Z,9.57
2023-03-05T16:09:12.070Z,9.57
2023-03-05T16:14:21.428Z,9.55
2023-03-05T16:19:29.442Z,9.56
2023-03-05T16:24:36.762Z,9.54
2023-03-05T16:29:44.204Z,9.54
2023-03-05T16:34:51.172Z,9.55
2023-03-05T16:39:59.558Z,9.53
2023-03-05T16:45:07.653Z,9.52
2023-03-05T16:50:15.428Z,9.51
2023-03-05T16:55:23.304Z,9.51
2023-03-05T17:00:30.897Z,9.51
2023-03-05T17:05:39.375Z,9.51
2023-03-05T17:10:46.691Z,9.49
2023-03-05T17:15:56.359Z,9.50
2023-03-05T17:21:06.035Z,9.49
2023-03-05T17:26:14.492Z,9.49
2023-03-05T17:31:21.962Z,9.48
2023-03-05T17:36:29.451Z,9.47
2023-03-05T17:41:36.962Z,9.47
2023-03-05T17:46:44.495Z,9.47
2023-03-05T17:51:52.194Z,9.46
2023-03-05T17:57:01.132Z,9.45
2023-03-05T18:02:28.936Z,9.45
2023-03-05T18:07:36.263Z,9.45
2023-03-05T18:12:44.051Z,9.44
2023-03-05T18:17:51.436Z,9.42
2023-03-05T18:22:59.591Z,9.41
2023-03-05T18:28:07.962Z,9.41
2023-03-05T18:33:17.431Z,9.42
2023-03-05T18:38:25.167Z,9.41
2023-03-05T18:43:32.561Z,9.40
2023-03-05T18:48:40.452Z,9.38
2023-03-05T18:53:47.982Z,9.38
2023-03-05T18:58:56.969Z,9.38
2023-03-05T19:04:06.085Z,9.39
2023-03-05T19:09:53.730Z,9.38
2023-03-05T19:15:01.355Z,9.42
2023-03-05T19:20:09.389Z,9.37
2023-03-05T19:25:17.053Z,9.35
2023-03-05T19:30:24.572Z,9.35
2023-03-05T19:35:32.490Z,9.35
2023-03-05T19:40:41.804Z,9.34
2023-03-05T19:45:49.407Z,9.34
2023-03-05T19:50:56.929Z,9.32
2023-03-05T19:56:06.633Z,9.32
2023-03-05T20:01:15.932Z,9.33
2023-03-05T20:06:24.278Z,9.32
2023-03-05T20:11:31.559Z,9.32
2023-03-05T20:16:39.468Z,9.30
2023-03-05T20:21:47.393Z,9.30
2023-03-05T20:26:54.920Z,9.29
2023-03-05T20:32:02.608Z,9.28
2023-03-05T20:37:10.086Z,9.27
2023-03-05T20:42:17.690Z,9.26
2023-03-05T20:47:45.351Z,9.26
2023-03-05T20:52:52.563Z,9.27
2023-03-05T20:57:59.618Z,9.26
2023-03-05T21:03:06.964Z,9.26
2023-03-05T21:08:13.996Z,9.25
2023-03-05T21:13:21.634Z,9.23
2023-03-05T21:18:30.095Z,9.23
2023-03-05T21:23:37.469Z,9.22
2023-03-05T21:28:44.759Z,9.22
2023-03-05T21:33:52.076Z,9.22
2023-03-05T21:39:00.887Z,9.22
2023-03-05T21:44:09.634Z,9.21
2023-03-05T21:49:18.092Z,9.21
2023-03-05T21:54:28.942Z,9.20
2023-03-05T21:59:36.698Z,9.19
2023-03-05T22:04:43.910Z,9.17
2023-03-05T22:09:55.405Z,9.18
2023-03-05T22:15:03.027Z,9.18
2023-03-05T22:20:11.580Z,9.17
2023-03-05T22:25:19.473Z,9.17
2023-03-05T22:30:27.321Z,9.16
2023-03-05T22:35:34.803Z,9.16
2023-03-05T22:40:44.767Z,9.14
2023-03-05T22:45:52.443Z,9.15
2023-03-05T22:50:59.746Z,9.14
2023-03-05T22:56:09.711Z,9.15
2023-03-05T23:01:17.931Z,9.14
2023-03-05T23:06:24.906Z,9.13
2023-03-05T23:11:31.934Z,9.13
2023-03-05T23:16:39.093Z,9.11
2023-03-05T23:21:46.401Z,9.11
2023-03-05T23:26:53.797Z,9.10
2023-03-05T23:32:01.024Z,9.10
2023-03-05T23:37:08.204Z,9.09
2023-03-05T23:42:15.321Z,9.09
2023-03-05T23:47:22.239Z,9.08
2023-03-05T23:52:29.736Z,9.08
2023-03-05T23:57:37.520Z,9.06
